createdAt,value
2022-08-22T00:00:25.414Z,11.95
2022-08-22T00:02:54.994Z,11.27
2022-08-22T00:02:59.626Z,13.02
2022-08-22T00:03:09.032Z,17.10
2022-08-22T00:03:25.141Z,18.27
2022-08-22T00:05:55.642Z,9.50
2022-08-22T00:11:18.937Z,15.93
2022-08-22T00:14:20.065Z,12.98
2022-08-22T00:16:50.866Z,17.23
2022-08-22T00:20:08.910Z,16.23
2022-08-22T00:23:16.918Z,15.82
2022-08-22T00:25:54.856Z,12.70
2022-08-22T00:28:44.303Z,9.85
2022-08-22T00:31:35.341Z,12.30
2022-08-22T00:34:32.724Z,15.77
2022-08-22T00:37:39.443Z,11.77
2022-08-22T00:40:25.575Z,11.95
2022-08-22T00:43:14.020Z,12.55
2022-08-22T00:45:56.810Z,14.30
2022-08-22T00:48:46.740Z,16.58
2022-08-22T00:51:35.713Z,13.50
2022-08-22T00:54:18.442Z,20.92
2022-08-22T00:57:18.452Z,12.85
2022-08-22T00:59:58.377Z,15.15
2022-08-22T01:02:52.688Z,18.42
2022-08-22T01:05:23.167Z,11.82
2022-08-22T01:08:18.177Z,15.48
2022-08-22T01:11:08.500Z,13.05
2022-08-22T01:14:00.444Z,10.57
2022-08-22T01:16:54.897Z,15.40
2022-08-22T01:19:52.831Z,16.40
2022-08-22T01:22:42.154Z,16.17
2022-08-22T01:25:47.633Z,13.15
2022-08-22T01:28:16.474Z,14.02
2022-08-22T01:31:14.666Z,10.45
2022-08-22T01:34:13.036Z,12.63
2022-08-22T01:36:53.999Z,17.02
2022-08-22T01:40:00.655Z,13.20
2022-08-22T01:42:37.410Z,10.82
2022-08-22T01:45:13.925Z,13.88
2022-08-22T01:48:09.655Z,11.23
2022-08-22T01:50:55.639Z,16.02
2022-08-22T01:53:38.401Z,11.18
2022-08-22T01:56:22.909Z,10.98
2022-08-22T01:59:11.246Z,15.55
2022-08-22T02:01:57.887Z,15.55
2022-08-22T02:05:04.439Z,11.25
2022-08-22T02:07:44.419Z,14.75
2022-08-22T02:10:38.428Z,12.10
2022-08-22T02:13:13.144Z,12.93
2022-08-22T02:15:50.389Z,10.40
2022-08-22T02:18:30.045Z,11.18
2022-08-22T02:21:12.268Z,16.88
2022-08-22T02:23:58.647Z,14.50
2022-08-22T02:27:13.392Z,16.00
2022-08-22T02:29:48.694Z,12.90
2022-08-22T02:32:40.939Z,12.90
2022-08-22T02:35:31.196Z,12.35
2022-08-22T02:38:35.510Z,10.80
2022-08-22T02:41:18.694Z,11.93
2022-08-22T02:44:04.708Z,16.23
2022-08-22T02:47:09.170Z,10.38
2022-08-22T02:50:02.437Z,15.77
2022-08-22T02:53:08.576Z,18.00
2022-08-22T02:55:50.780Z,10.05
2022-08-22T02:58:37.081Z,15.23
2022-08-22T03:01:40.870Z,12.30
2022-08-22T03:04:43.452Z,9.85
2022-08-22T03:07:14.413Z,19.52
2022-08-22T03:09:47.093Z,13.15
2022-08-22T03:12:40.289Z,12.90
2022-08-22T03:15:49.485Z,13.60
2022-08-22T03:18:22.821Z,9.60
2022-08-22T03:21:14.040Z,12.27
2022-08-22T03:24:03.786Z,16.27
2022-08-22T03:26:50.529Z,11.35
2022-08-22T03:29:37.002Z,16.77
2022-08-22T03:32:21.236Z,20.33
2022-08-22T03:35:01.920Z,12.75
2022-08-22T03:37:43.589Z,16.85
2022-08-22T03:40:31.708Z,14.93
2022-08-22T03:43:20.821Z,17.75
2022-08-22T03:46:10.936Z,11.90
2022-08-22T03:49:04.081Z,12.00
2022-08-22T03:51:57.946Z,10.27
2022-08-22T03:54:44.288Z,10.30
2022-08-22T03:57:37.851Z,11.50
2022-08-22T04:00:26.752Z,11.57
2022-08-22T04:03:25.594Z,15.57
2022-08-22T04:06:13.143Z,14.70
2022-08-22T04:09:04.689Z,13.88
2022-08-22T04:11:59.690Z,13.00
2022-08-22T04:15:11.091Z,16.05
2022-08-22T04:18:03.405Z,16.73
2022-08-22T04:21:30.158Z,13.20
2022-08-22T04:24:32.837Z,20.33
2022-08-22T04:27:18.782Z,12.85
2022-08-22T04:29:55.835Z,13.80
2022-08-22T04:32:33.184Z,12.02
2022-08-22T04:35:07.084Z,9.45
2022-08-22T04:37:53.624Z,14.98
2022-08-22T04:40:43.693Z,11.27
2022-08-22T04:43:35.886Z,15.65
2022-08-22T04:46:16.682Z,11.80
2022-08-22T04:51:43.181Z,12.23
2022-08-22T04:55:02.713Z,13.45
2022-08-22T04:57:44.566Z,12.65
2022-08-22T05:00:17.952Z,10.88
2022-08-22T05:02:51.824Z,12.68
2022-08-22T05:05:26.860Z,13.43
2022-08-22T05:07:59.869Z,18.23
2022-08-22T05:10:47.399Z,14.15
2022-08-22T05:13:32.908Z,14.65
2022-08-22T05:16:14.551Z,16.83
2022-08-22T05:18:48.851Z,15.73
2022-08-22T05:21:23.725Z,11.70
2022-08-22T05:24:07.236Z,8.85
2022-08-22T05:26:40.786Z,20.70
2022-08-22T05:29:11.719Z,15.68
2022-08-22T05:31:47.665Z,18.80
2022-08-22T05:34:27.978Z,14.02
2022-08-22T05:36:57.782Z,10.60
2022-08-22T05:39:28.379Z,12.30
2022-08-22T05:42:16.390Z,15.70
2022-08-22T05:44:45.871Z,16.27
2022-08-22T05:47:27.141Z,17.30
2022-08-22T05:50:13.614Z,18.90
2022-08-22T05:53:12.185Z,15.75
2022-08-22T05:56:07.409Z,16.83
2022-08-22T05:58:53.865Z,16.52
2022-08-22T06:01:24.615Z,17.83
2022-08-22T06:04:07.103Z,15.20
2022-08-22T06:06:43.923Z,14.63
2022-08-22T06:09:35.616Z,14.18
2022-08-22T06:12:18.202Z,13.35
2022-08-22T06:15:12.541Z,19.83
2022-08-22T06:17:45.674Z,12.23
2022-08-22T06:20:28.734Z,15.45
2022-08-22T06:23:07.407Z,18.48
2022-08-22T06:25:40.971Z,18.63
2022-08-22T06:28:13.023Z,14.15
2022-08-22T06:30:45.686Z,13.38
2022-08-22T06:33:18.796Z,15.60
2022-08-22T06:36:14.723Z,14.52
2022-08-22T06:38:58.386Z,16.98
2022-08-22T06:41:33.025Z,18.63
2022-08-22T06:44:04.003Z,12.82
2022-08-22T06:46:36.234Z,15.82
2022-08-22T06:49:07.894Z,17.10
2022-08-22T06:51:40.210Z,13.30
2022-08-22T06:54:24.689Z,10.55
2022-08-22T06:56:57.406Z,13.93
2022-08-22T06:59:30.812Z,15.18
2022-08-22T07:02:12.808Z,17.42
2022-08-22T07:04:44.415Z,12.73
2022-08-22T07:07:12.339Z,16.20
2022-08-22T07:09:41.560Z,11.07
2022-08-22T07:12:20.197Z,15.48
2022-08-22T07:14:52.124Z,13.73
2022-08-22T07:17:25.963Z,18.00
2022-08-22T07:19:59.643Z,15.25
2022-08-22T07:22:54.076Z,10.70
2022-08-22T07:25:26.770Z,12.32
2022-08-22T07:28:36.954Z,9.00
2022-08-22T07:31:24.574Z,12.48
2022-08-22T07:34:04.452Z,12.73
2022-08-22T07:37:06.821Z,7.70
2022-08-22T07:39:45.112Z,12.13
2022-08-22T07:42:28.566Z,11.90
2022-08-22T07:45:24.533Z,9.13
2022-08-22T07:48:06.451Z,10.77
2022-08-22T07:50:57.682Z,7.72
2022-08-22T07:53:45.144Z,12.82
2022-08-22T07:56:25.881Z,10.20
2022-08-22T07:58:58.920Z,9.45
2022-08-22T08:01:29.472Z,11.23
2022-08-22T08:04:05.705Z,9.68
2022-08-22T08:06:38.907Z,7.53
2022-08-22T08:09:13.061Z,13.52
2022-08-22T08:11:43.661Z,7.38
2022-08-22T08:14:16.743Z,12.07
2022-08-22T08:17:12.701Z,12.02
2022-08-22T08:19:42.621Z,11.95
2022-08-22T08:22:17.319Z,10.25
2022-08-22T08:24:48.353Z,11.15
2022-08-22T08:27:41.998Z,13.70
2022-08-22T08:30:17.237Z,9.05
2022-08-22T08:32:59.613Z,7.60
2022-08-22T08:36:12.949Z,10.93
2022-08-22T08:39:12.626Z,9.55
2022-08-22T08:41:59.849Z,7.95
2022-08-22T08:45:04.535Z,9.97
2022-08-22T08:47:36.599Z,9.73
2022-08-22T08:50:50.704Z,6.70
2022-08-22T08:53:42.873Z,7.72
2022-08-22T08:56:35.007Z,9.35
2022-08-22T08:59:17.521Z,10.48
2022-08-22T09:02:04.013Z,8.40
2022-08-22T09:04:58.218Z,32.05
2022-08-22T09:07:55.522Z,13.45
2022-08-22T09:10:27.242Z,9.32
2022-08-22T09:13:11.710Z,8.02
2022-08-22T09:16:04.425Z,11.45
2022-08-22T09:19:05.989Z,14.88
2022-08-22T09:22:02.144Z,8.57
2022-08-22T09:24:46.060Z,11.70
2022-08-22T09:27:35.639Z,12.25
2022-08-22T09:30:08.818Z,8.25
2022-08-22T09:32:48.618Z,10.50
2022-08-22T09:35:47.356Z,11.30
2022-08-22T09:38:40.142Z,9.88
2022-08-22T09:41:45.992Z,13.07
2022-08-22T09:44:40.801Z,8.63
2022-08-22T09:47:51.977Z,7.35
2022-08-22T09:50:44.508Z,7.20
2022-08-22T09:53:26.318Z,8.50
2022-08-22T09:56:14.986Z,9.68
2022-08-22T09:59:14.782Z,6.10
2022-08-22T10:02:15.381Z,9.57
2022-08-22T10:05:11.984Z,9.60
2022-08-22T10:08:13.729Z,10.68
2022-08-22T10:11:10.029Z,11.15
2022-08-22T10:14:08.306Z,9.18
2022-08-22T10:16:57.266Z,8.85
2022-08-22T10:19:47.208Z,8.68
2022-08-22T10:22:35.029Z,8.48
2022-08-22T10:25:22.514Z,5.55
2022-08-22T10:27:56.287Z,10.25
2022-08-22T10:30:38.496Z,6.95
2022-08-22T10:33:24.389Z,7.22
2022-08-22T10:36:00.663Z,7.43
2022-08-22T10:38:52.257Z,5.28
2022-08-22T10:41:58.246Z,5.15
2022-08-22T10:44:55.066Z,6.88
2022-08-22T10:48:02.756Z,6.22
2022-08-22T10:50:52.261Z,4.68
2022-08-22T10:53:46.274Z,4.30
2022-08-22T10:56:27.373Z,5.65
2022-08-22T10:59:03.995Z,5.38
2022-08-22T11:01:41.716Z,10.07
2022-08-22T11:04:45.986Z,8.52
2022-08-22T11:07:34.707Z,6.63
2022-08-22T11:10:09.648Z,8.15
2022-08-22T11:12:44.654Z,6.50
2022-08-22T11:15:41.060Z,8.77
2022-08-22T11:18:30.533Z,6.22
2022-08-22T11:21:07.738Z,8.25
2022-08-22T11:23:45.473Z,4.18
2022-08-22T11:26:47.844Z,6.75
2022-08-22T11:29:58.137Z,4.38
2022-08-22T11:32:49.800Z,7.82
2022-08-22T11:38:16.456Z,6.47
2022-08-22T11:41:04.683Z,4.13
2022-08-22T11:43:50.149Z,8.80
2022-08-22T11:46:44.676Z,7.95
2022-08-22T11:49:33.901Z,10.43
2022-08-22T11:52:19.941Z,9.18
2022-08-22T11:55:16.931Z,11.50
2022-08-22T11:57:58.312Z,5.55
2022-08-22T12:00:54.106Z,5.65
2022-08-22T12:03:37.383Z,7.88
2022-08-22T12:06:28.548Z,4.93
2022-08-22T12:09:23.039Z,9.90
2022-08-22T12:12:20.355Z,8.15
2022-08-22T12:15:11.730Z,9.57
2022-08-22T12:18:10.316Z,5.03
2022-08-22T12:21:17.964Z,11.85
2022-08-22T12:24:11.311Z,13.30
2022-08-22T12:26:57.304Z,9.02
2022-08-22T12:29:48.749Z,10.15
2022-08-22T12:32:54.401Z,11.95
2022-08-22T12:35:44.132Z,7.97
2022-08-22T12:38:43.755Z,16.02
2022-08-22T12:41:50.076Z,11.20
2022-08-22T12:44:49.886Z,14.23
2022-08-22T12:47:42.299Z,6.90
2022-08-22T12:50:34.227Z,7.47
2022-08-22T12:53:20.362Z,6.15
2022-08-22T12:56:16.701Z,9.00
2022-08-22T12:59:05.466Z,10.32
2022-08-22T13:01:43.474Z,10.90
2022-08-22T13:04:33.194Z,7.03
2022-08-22T13:07:22.901Z,3.53
2022-08-22T13:10:04.677Z,3.65
2022-08-22T13:12:56.038Z,3.55
2022-08-22T13:15:31.298Z,3.15
2022-08-22T13:18:25.284Z,7.15
2022-08-22T13:20:53.737Z,5.13
2022-08-22T13:23:34.403Z,8.50
2022-08-22T13:26:34.074Z,6.13
2022-08-22T13:29:26.724Z,6.80
2022-08-22T13:32:02.722Z,6.03
2022-08-22T13:34:59.500Z,4.22
2022-08-22T13:37:50.200Z,7.55
2022-08-22T13:40:32.697Z,2.88
2022-08-22T13:43:09.777Z,5.47
2022-08-22T13:45:46.912Z,6.15
2022-08-22T13:48:15.847Z,4.25
2022-08-22T13:51:13.803Z,5.90
2022-08-22T13:53:49.975Z,5.03
2022-08-22T13:56:47.911Z,5.93
2022-08-22T14:00:01.601Z,6.45
2022-08-22T14:02:43.466Z,4.72
2022-08-22T14:05:28.959Z,5.57
2022-08-22T14:08:19.945Z,7.93
2022-08-22T14:10:55.256Z,9.07
2022-08-22T14:13:40.028Z,6.70
2022-08-22T14:16:25.328Z,9.35
2022-08-22T14:19:16.562Z,8.80
2022-08-22T14:21:55.649Z,14.98
2022-08-22T14:24:35.105Z,7.97
2022-08-22T14:27:18.164Z,9.95
2022-08-22T14:29:52.734Z,6.90
2022-08-22T14:32:26.747Z,3.53
2022-08-22T14:35:02.254Z,10.88
2022-08-22T14:37:40.916Z,11.05
2022-08-22T14:40:34.480Z,11.05
2022-08-22T14:43:22.338Z,6.53
2022-08-22T14:45:57.883Z,12.18
2022-08-22T14:48:52.193Z,10.13
2022-08-22T14:51:25.468Z,12.20
2022-08-22T14:54:08.292Z,8.75
2022-08-22T14:56:44.806Z,10.55
2022-08-22T14:59:40.150Z,10.00
2022-08-22T15:02:32.526Z,9.18
2022-08-22T15:05:13.724Z,5.72
2022-08-22T15:07:41.925Z,3.95
2022-08-22T15:10:33.142Z,3.72
2022-08-22T15:13:08.009Z,5.30
2022-08-22T15:15:41.199Z,3.45
2022-08-22T15:18:33.581Z,12.68
2022-08-22T15:21:12.408Z,3.58
2022-08-22T15:23:46.775Z,6.15
2022-08-22T15:26:25.726Z,6.55
2022-08-22T15:29:09.671Z,10.75
2022-08-22T15:31:41.650Z,7.60
2022-08-22T15:34:24.581Z,5.50
2022-08-22T15:37:16.880Z,7.38
2022-08-22T15:40:32.874Z,4.63
2022-08-22T15:43:20.062Z,4.00
2022-08-22T15:45:49.146Z,4.78
2022-08-22T15:48:42.844Z,6.05
2022-08-22T15:51:54.680Z,3.58
2022-08-22T15:54:27.125Z,6.82
2022-08-22T15:57:15.269Z,3.20
2022-08-22T15:59:53.603Z,6.00
2022-08-22T16:02:25.139Z,4.82
2022-08-22T16:05:15.232Z,8.95
2022-08-22T16:08:08.426Z,5.75
2022-08-22T16:10:41.378Z,4.60
2022-08-22T16:13:30.076Z,7.07
2022-08-22T16:16:00.498Z,7.70
2022-08-22T16:21:22.241Z,4.75
2022-08-22T16:23:56.842Z,5.22
2022-08-22T16:26:32.487Z,4.97
2022-08-22T16:29:16.099Z,4.00
2022-08-22T16:31:48.709Z,3.25
2022-08-22T16:34:19.292Z,6.22
2022-08-22T16:37:09.039Z,5.68
2022-08-22T16:40:07.563Z,3.88
2022-08-22T16:42:40.913Z,6.43
2022-08-22T16:45:34.349Z,2.55
2022-08-22T16:48:24.369Z,6.68
2022-08-22T16:51:22.332Z,5.15
2022-08-22T16:54:11.009Z,4.85
2022-08-22T16:56:54.788Z,3.47
2022-08-22T16:59:59.647Z,4.72
2022-08-22T17:03:14.770Z,1.95
2022-08-22T17:05:54.061Z,6.57
2022-08-22T17:08:53.051Z,7.10
2022-08-22T17:12:01.132Z,5.18
2022-08-22T17:15:01.339Z,5.63
2022-08-22T17:17:48.860Z,3.90
2022-08-22T17:20:54.411Z,7.47
2022-08-22T17:23:42.204Z,5.50
2022-08-22T17:26:30.754Z,5.13
2022-08-22T17:29:01.923Z,5.57
2022-08-22T17:31:54.217Z,6.93
2022-08-22T17:34:40.045Z,7.75
2022-08-22T17:37:22.534Z,8.18
2022-08-22T17:40:10.913Z,5.70
2022-08-22T17:42:54.552Z,8.23
2022-08-22T17:45:30.975Z,7.88
2022-08-22T17:48:26.710Z,7.40
2022-08-22T17:51:10.871Z,8.75
2022-08-22T17:54:12.429Z,6.35
2022-08-22T17:57:05.581Z,3.15
2022-08-22T17:59:56.619Z,8.60
2022-08-22T18:02:39.486Z,5.43
2022-08-22T18:05:34.237Z,8.13
2022-08-22T18:11:40.197Z,2.92
2022-08-22T18:14:38.245Z,6.45
2022-08-22T18:17:29.662Z,4.60
2022-08-22T18:20:27.998Z,6.72
2022-08-22T18:23:21.460Z,2.03
2022-08-22T18:26:14.801Z,3.25
2022-08-22T18:29:16.434Z,3.97
2022-08-22T18:32:21.713Z,3.33
2022-08-22T18:35:18.187Z,1.70
2022-08-22T18:38:19.272Z,3.55
2022-08-22T18:41:26.129Z,5.60
2022-08-22T18:43:54.549Z,5.60
2022-08-22T18:46:48.117Z,4.85
2022-08-22T18:49:22.281Z,6.00
2022-08-22T18:52:05.593Z,3.92
2022-08-22T18:54:58.997Z,6.18
2022-08-22T18:57:58.744Z,7.13
2022-08-22T19:00:39.034Z,4.47
2022-08-22T19:03:27.979Z,4.75
2022-08-22T19:06:23.892Z,4.10
2022-08-22T19:09:07.381Z,6.20
2022-08-22T19:12:04.901Z,5.43
2022-08-22T19:15:11.729Z,6.13
2022-08-22T19:18:10.344Z,2.00
2022-08-22T19:20:59.458Z,8.10
2022-08-22T19:23:44.260Z,8.07
2022-08-22T19:26:25.170Z,5.72
2022-08-22T19:28:59.516Z,8.05
2022-08-22T19:31:41.240Z,7.10
2022-08-22T19:34:31.626Z,3.90
2022-08-22T19:37:32.371Z,3.67
2022-08-22T19:40:12.240Z,2.92
2022-08-22T19:42:43.338Z,4.30
2022-08-22T19:45:29.180Z,3.63
2022-08-22T19:48:13.094Z,4.50
2022-08-22T19:50:48.908Z,5.38
2022-08-22T19:53:48.868Z,2.53
2022-08-22T19:56:35.684Z,3.70
2022-08-22T19:59:51.127Z,5.03
2022-08-22T20:02:54.612Z,2.97
2022-08-22T20:05:57.058Z,4.22
2022-08-22T20:08:48.105Z,2.97
2022-08-22T20:11:39.728Z,2.08
2022-08-22T20:14:22.515Z,4.15
2022-08-22T20:17:03.038Z,6.15
2022-08-22T20:22:46.358Z,3.70
2022-08-22T20:25:42.698Z,3.58
2022-08-22T20:28:35.235Z,3.08
2022-08-22T20:31:24.873Z,5.22
2022-08-22T20:34:00.640Z,2.80
2022-08-22T20:36:29.523Z,3.95
2022-08-22T20:39:07.580Z,3.55
2022-08-22T20:41:41.989Z,3.60
2022-08-22T20:44:27.642Z,4.47
2022-08-22T20:47:02.451Z,8.95
2022-08-22T20:49:37.805Z,4.25
2022-08-22T20:52:09.826Z,5.05
2022-08-22T20:54:43.271Z,7.28
2022-08-22T20:57:18.306Z,5.47
2022-08-22T21:00:06.692Z,5.53
2022-08-22T21:02:45.968Z,7.72
2022-08-22T21:05:21.341Z,6.22
2022-08-22T21:08:27.517Z,5.13
2022-08-22T21:11:27.702Z,5.55
2022-08-22T21:14:21.106Z,4.63
2022-08-22T21:16:53.237Z,5.45
2022-08-22T21:19:27.073Z,5.53
2022-08-22T21:22:15.745Z,5.68
2022-08-22T21:25:07.242Z,4.85
2022-08-22T21:27:37.407Z,4.45
2022-08-22T21:30:23.613Z,3.72
2022-08-22T21:32:56.302Z,2.97
2022-08-22T21:35:36.953Z,6.70
2022-08-22T21:38:18.634Z,3.30
2022-08-22T21:40:50.612Z,3.30
2022-08-22T21:43:40.408Z,4.28
2022-08-22T21:46:53.816Z,2.72
2022-08-22T21:49:36.416Z,3.88
2022-08-22T21:52:41.800Z,2.13
2022-08-22T21:55:34.365Z,3.47
2022-08-22T21:58:31.014Z,2.33
2022-08-22T22:02:06.003Z,4.68
2022-08-22T22:04:51.794Z,3.92
2022-08-22T22:07:23.341Z,4.13
2022-08-22T22:09:54.731Z,3.30
2022-08-22T22:12:24.343Z,4.72
2022-08-22T22:14:55.480Z,5.28
2022-08-22T22:17:30.326Z,5.45
2022-08-22T22:19:58.297Z,3.20
2022-08-22T22:22:26.018Z,2.22
2022-08-22T22:24:53.940Z,2.63
2022-08-22T22:27:21.541Z,3.00
2022-08-22T22:30:02.943Z,3.88
2022-08-22T22:32:51.240Z,4.03
2022-08-22T22:35:23.180Z,4.53
2022-08-22T22:37:56.901Z,2.83
2022-08-22T22:40:27.421Z,4.30
2022-08-22T22:42:55.924Z,4.93
2022-08-22T22:45:25.188Z,4.20
2022-08-22T22:47:53.079Z,3.42
2022-08-22T22:50:23.212Z,2.80
2022-08-22T22:52:55.452Z,6.60
2022-08-22T22:55:33.294Z,4.03
2022-08-22T22:58:08.598Z,2.85
2022-08-22T23:00:40.495Z,4.13
2022-08-22T23:03:10.825Z,4.45
2022-08-22T23:05:38.548Z,3.22
2022-08-22T23:08:06.769Z,3.50
2022-08-22T23:10:34.686Z,4.53
2022-08-22T23:13:02.345Z,5.15
2022-08-22T23:15:33.518Z,6.07
2022-08-22T23:18:02.530Z,4.05
2022-08-22T23:20:30.249Z,3.53
2022-08-22T23:23:01.188Z,6.30
2022-08-22T23:25:31.403Z,4.78
2022-08-22T23:27:59.691Z,6.60
2022-08-22T23:30:29.415Z,6.05
2022-08-22T23:32:57.104Z,5.67
2022-08-22T23:35:24.938Z,3.47
2022-08-22T23:37:52.901Z,6.93
2022-08-22T23:40:21.096Z,4.05
2022-08-22T23:42:54.879Z,5.72
2022-08-22T23:45:24.391Z,3.72
2022-08-22T23:47:52.009Z,2.47
2022-08-22T23:50:19.667Z,4.60
2022-08-22T23:52:47.509Z,2.80
2022-08-22T23:55:17.595Z,4.88
2022-08-22T23:57:45.386Z,3.85
